Pineville, Kentucky
Current Conditions -  °F | °C
As of 3:55 PM on Saturday 20 Dec 2014 (Local Time) from K1A6 Reporting Station
Overcast Overcast  
Wind Chill: 40°   Ceiling: 4800
Heat Index: 43°   Visibility: 10mi
Dew Point: 31°   Wind: 5mph
Humidity: 64%   Direction: 90°E
Pressure: 30.2"   Gusts: NA
Location:  36.76°N, 83.69°W
Report Text: K1A6 202055Z AUTO 09004KT 10SM SCT031 OVC048 06/00 A3020 RMK AO2 T00601003
Loading
Personal Weather Stations






























Interactive Weather Map New forecast layout! Learn more

10-Day Weather Forecast

Advertisements
Track Severe Weather on mobile